»·PEaware :: SSX175 KRDD-KPDX

SSX175 :: KRDD-KPDX

FLIGHT INFORMATION

Flight Status: Arrived
Operator:
Lynx Aviation
More flights by this operator :: More flights under this callsign
Pilot: Mike F. (207)
Aircraft: BOEING 717-200
(B712)
More flights by this aircraft type
Origin: KRDD Redding Mun
United States
Destination: KPDX Portland Intl
United States
More flights between these airports :: More routes between these airports
Route: MACHU TMBRS2
File this flight plan on PilotEdge
Remarks: CALLSIGN SHASTA
Altitude:
(Current/Filed)
32,000ft
Speed:
(Current/Filed)
436kts
Departed: 19-May-19 11:41 AM
Arrived: 19-May-19 12:44 PM
Distance/Time
Traveled:
305nm/1:03
Distance/Time
To Go:
Arrived

Flight Plot

Page will automatically refresh every two minutes.

Flight plan parsing failed; only flown route is shown


Map Options




Map Legend


Flown Route
Filed Route
Departure Airport
Arrival Airport
Navaid (VOR, NDB)
Fix

Horizontal Profiles

Position Reports

Time Latitude Longitude Heading Altitude Ground
Speed
19-May-19 11:01 40.505096 -122.299163 316 510ft 0kts
19-May-19 11:02 40.505096 -122.299163 316 510ft 0kts
19-May-19 11:03 40.505096 -122.299163 316 510ft 0kts
19-May-19 11:04 40.505096 -122.299163 316 510ft 0kts
19-May-19 11:05 40.505096 -122.299163 316 510ft 0kts
19-May-19 11:06 40.505096 -122.299163 316 510ft 0kts
19-May-19 11:07 40.505096 -122.299163 316 510ft 0kts
19-May-19 11:08 40.505096 -122.299163 316 510ft 0kts
19-May-19 11:09 40.505096 -122.299163 316 510ft 0kts
19-May-19 11:10 40.505096 -122.299163 316 510ft 0kts
19-May-19 11:10 40.505096 -122.299163 316 510ft 0kts
19-May-19 11:12 40.505096 -122.299163 316 510ft 0kts
19-May-19 11:13 40.505096 -122.299163 316 510ft 0kts
19-May-19 11:13 40.505096 -122.299163 316 510ft 0kts
19-May-19 11:14 40.505096 -122.299163 316 510ft 0kts
19-May-19 11:16 40.505096 -122.299163 316 510ft 0kts
19-May-19 11:16 40.505096 -122.299163 316 510ft 0kts
19-May-19 11:17 40.505096 -122.299163 316 510ft 0kts
19-May-19 11:18 40.505096 -122.299163 316 510ft 0kts
19-May-19 11:19 40.505096 -122.299163 316 510ft 0kts
19-May-19 11:20 40.505096 -122.299163 316 510ft 0kts
19-May-19 11:21 40.505096 -122.299163 316 510ft 0kts
19-May-19 11:22 40.505096 -122.299163 316 510ft 0kts
19-May-19 11:23 40.505096 -122.299163 316 510ft 0kts
19-May-19 11:24 40.505096 -122.299163 316 510ft 0kts
19-May-19 11:25 40.505096 -122.299163 316 510ft 0kts
19-May-19 11:26 40.504970 -122.299003 315 511ft 2kts
19-May-19 11:27 40.504845 -122.298844 315 511ft 0kts
19-May-19 11:28 40.504846 -122.298845 316 511ft 0kts
19-May-19 11:29 40.504846 -122.298845 316 511ft 0kts
19-May-19 11:30 40.504847 -122.298846 316 511ft 0kts
19-May-19 11:31 40.504847 -122.298847 316 511ft 0kts
19-May-19 11:32 40.504848 -122.298847 316 511ft 0kts
19-May-19 11:33 40.504848 -122.298848 316 511ft 0kts
19-May-19 11:34 40.504849 -122.298849 316 511ft 0kts
19-May-19 11:35 40.505342 -122.298780 17 511ft 14kts
19-May-19 11:36 40.509283 -122.296342 4 511ft 15kts
19-May-19 11:37 40.514276 -122.296329 359 511ft 20kts
19-May-19 11:38 40.519044 -122.296318 0 511ft 14kts
19-May-19 11:39 40.520242 -122.295277 107 511ft 12kts
19-May-19 11:40 40.508003 -122.294949 181 511ft 144kts
19-May-19 11:41 40.463238 -122.294310 178 3026ft 156kts
19-May-19 11:42 40.414918 -122.305451 221 4011ft 236kts
19-May-19 11:43 40.426607 -122.389184 329 6379ft 287kts
19-May-19 11:44 40.506721 -122.407525 354 9269ft 298kts
19-May-19 11:45 40.593479 -122.421589 353 10824ft 351kts
19-May-19 11:46 40.693778 -122.437958 353 13096ft 367kts
19-May-19 11:47 40.796856 -122.454815 353 15328ft 380kts
19-May-19 11:48 40.903151 -122.472252 353 17389ft 391kts
19-May-19 11:49 41.013011 -122.490336 354 19207ft 404kts
19-May-19 11:50 41.126614 -122.509098 354 20851ft 416kts
19-May-19 11:51 41.242393 -122.528286 354 22331ft 427kts
19-May-19 11:52 41.362404 -122.548253 354 22989ft 433kts
19-May-19 11:53 41.450938 -122.563028 354 22996ft 433kts
19-May-19 11:54 41.571382 -122.578661 359 23821ft 437kts
19-May-19 11:55 41.693257 -122.586362 0 25012ft 447kts
19-May-19 11:56 41.820211 -122.594661 0 26113ft 457kts
19-May-19 11:57 41.948310 -122.603064 1 27119ft 464kts
19-May-19 11:58 42.077807 -122.611603 2 28148ft 469kts
19-May-19 11:59 42.208938 -122.620289 3 29369ft 469kts
19-May-19 12:00 42.337738 -122.628883 2 30668ft 466kts
19-May-19 12:01 42.466833 -122.637530 1 31868ft 463kts
19-May-19 12:02 42.595216 -122.646174 1 31971ft 459kts
19-May-19 12:03 42.722914 -122.654796 1 31978ft 459kts
19-May-19 12:04 42.849792 -122.663391 1 31986ft 459kts
19-May-19 12:05 42.978528 -122.672178 1 31994ft 459kts
19-May-19 12:06 43.105531 -122.680868 1 32002ft 459kts
19-May-19 12:07 43.233760 -122.689706 1 32004ft 460kts
19-May-19 12:08 43.362084 -122.698549 1 32021ft 461kts
19-May-19 12:09 43.490272 -122.707382 2 32023ft 462kts
19-May-19 12:10 43.617356 -122.716199 2 31137ft 453kts
19-May-19 12:11 43.740340 -122.724751 2 29241ft 439kts
19-May-19 12:12 43.861818 -122.733210 2 27701ft 419kts
19-May-19 12:13 43.975757 -122.741179 2 26256ft 402kts
19-May-19 12:14 44.085071 -122.748852 1 24873ft 387kts
19-May-19 12:15 44.190329 -122.749615 8 23421ft 375kts
19-May-19 12:16 44.293551 -122.739234 7 21779ft 368kts
19-May-19 12:17 44.394118 -122.729305 7 20190ft 360kts
19-May-19 12:18 44.480956 -122.720696 6 18775ft 352kts
19-May-19 12:19 44.577876 -122.711045 6 17241ft 339kts
19-May-19 12:20 44.672463 -122.701576 6 15699ft 340kts
19-May-19 12:21 44.763024 -122.692451 5 14220ft 331kts
19-May-19 12:22 44.854968 -122.683194 5 12784ft 321kts
19-May-19 12:23 44.941702 -122.674438 5 11578ft 301kts
19-May-19 12:24 45.023306 -122.666173 5 10781ft 288kts
19-May-19 12:25 45.103101 -122.658052 4 9442ft 286kts
19-May-19 12:26 45.181967 -122.650012 4 8914ft 286kts
19-May-19 12:27 45.259031 -122.649961 344 8129ft 276kts
19-May-19 12:28 45.330372 -122.687454 339 7317ft 271kts
19-May-19 12:29 45.400362 -122.725830 339 6288ft 266kts
19-May-19 12:30 45.467172 -122.762562 338 5580ft 242kts
19-May-19 12:31 45.527002 -122.795502 338 5050ft 222kts
19-May-19 12:32 45.581149 -122.836260 309 4986ft 222kts
19-May-19 12:33 45.615687 -122.909774 302 4139ft 217kts
19-May-19 12:34 45.646525 -122.977115 302 2943ft 173kts
19-May-19 12:35 45.681612 -123.016813 18 2992ft 180kts
19-May-19 12:36 45.712058 -122.960174 57 2991ft 182kts
19-May-19 12:37 45.712194 -122.890564 120 2996ft 183kts
19-May-19 12:38 45.685329 -122.827695 121 2969ft 186kts
19-May-19 12:39 45.659999 -122.764941 118 2536ft 181kts
19-May-19 12:40 45.637210 -122.705573 120 1783ft 165kts
19-May-19 12:41 45.617160 -122.652747 117 1134ft 148kts
19-May-19 12:42 45.597376 -122.602021 120 109ft 134kts
19-May-19 12:43 45.587131 -122.576309 145 38ft 17kts
19-May-19 12:44 45.587580 -122.580341 299 38ft 15kts
19-May-19 12:45 45.589578 -122.585969 268 38ft 15kts
19-May-19 12:46 45.590415 -122.589730 298 38ft 11kts
19-May-19 12:47 45.590236 -122.591565 210 38ft 0kts

Navigation Log

Ident Type
Flight plan parsing failed, navigation log unavailable